Time;durP1;ratioP1;P1;durP2;ratioP2;P2;SDS_P1;SDS_P2;PMS_P1;PMS_P2;Temp;Humidity;BMP_temperature;BMP_pressure;BME280_temperature;BME280_humidity;BME280_pressure;Samples;Min_cycle;Max_cycle;Signal;HPM_P1;HPM_P2
2022/12/11 00:01:39;;;;;;;;;1.00;0.00;;;;;18.92;68.88;99615.84;146621;571;46012;-79
2022/12/11 00:04:36;;;;;;;;;2.00;1.67;;;;;18.95;68.85;99614.97;146619;750;46016;-78
2022/12/11 00:07:32;;;;;;;;;1.00;1.00;;;;;18.98;69.29;99628.09;146612;643;46021;-79
2022/12/11 00:10:27;;;;;;;;;1.00;1.00;;;;;19.00;68.57;99639.47;146620;599;46016;-77
2022/12/11 00:13:23;;;;;;;;;5.00;2.33;;;;;19.03;69.18;99626.31;146611;645;46913;-79
2022/12/11 00:16:16;;;;;;;;;3.67;2.67;;;;;19.04;70.39;99636.84;146620;639;46014;-75
2022/12/11 00:19:12;;;;;;;;;2.33;0.67;;;;;17.98;71.28;99463.53;146620;624;46010;-76
2022/12/11 00:22:16;;;;;;;;;3.00;1.00;;;;;18.86;73.46;99593.06;146615;628;47014;-76
2022/12/11 00:25:14;;;;;;;;;4.00;1.00;;;;;18.67;76.61;99552.78;146623;586;46012;-73
2022/12/11 00:28:19;;;;;;;;;1.33;1.00;;;;;18.44;77.48;99526.53;146618;625;46017;-81
2022/12/11 00:31:22;;;;;;;;;1.00;0.00;;;;;18.21;78.04;99523.88;146622;571;46029;-77
2022/12/11 00:34:27;;;;;;;;;1.00;1.00;;;;;18.05;78.83;99501.12;146618;628;46016;-76
2022/12/11 00:37:23;;;;;;;;;2.00;0.67;;;;;17.92;79.21;99494.12;146619;573;46021;-75
2022/12/11 00:40:21;;;;;;;;;1.00;0.00;;;;;17.84;78.29;99496.72;146610;595;47012;-78
2022/12/11 00:43:14;;;;;;;;;0.67;0.67;;;;;17.78;77.53;99484.47;146622;580;46010;-75
2022/12/11 00:46:16;;;;;;;;;2.67;0.33;;;;;17.82;76.03;99493.22;146612;549;46016;-76
2022/12/11 00:49:11;;;;;;;;;1.00;0.00;;;;;17.91;75.57;99492.34;146621;601;46020;-74
2022/12/11 00:52:16;;;;;;;;;;;;;;;;;;;;;
2022/12/11 00:55:14;;;;;;;;;1.00;1.00;;;;;18.04;74.16;99524.72;146624;597;46010;-77
2022/12/11 00:58:10;;;;;;;;;3.33;3.33;;;;;18.10;73.89;99514.25;146619;619;46013;-77
2022/12/11 01:01:32;;;;;;;;;2.33;1.00;;;;;18.16;74.10;99511.63;146622;563;46021;-78
2022/12/11 01:04:32;;;;;;;;;0.00;0.00;;;;;18.18;72.68;99486.28;146616;586;46012;-76
2022/12/11 01:07:33;;;;;;;;;1.00;0.00;;;;;18.30;72.15;99485.41;146621;658;46010;-78
2022/12/11 01:10:37;;;;;;;;;1.33;0.67;;;;;18.40;71.48;99495.03;146618;604;46014;-76
2022/12/11 01:13:32;;;;;;;;;3.00;1.00;;;;;18.52;71.35;99486.28;146621;583;46012;-74
2022/12/11 01:16:34;;;;;;;;;0.00;0.00;;;;;18.55;71.56;99518.66;146620;571;46016;-74
2022/12/11 01:19:27;;;;;;;;;1.00;0.00;;;;;18.60;70.49;99495.91;146622;578;46020;-74
2022/12/11 01:22:36;;;;;;;;;0.00;0.00;;;;;16.33;70.45;99107.88;146618;636;46016;-74
2022/12/11 01:25:32;;;;;;;;;0.00;0.00;;;;;18.73;68.70;99514.31;146621;615;46020;-75
2022/12/11 01:28:24;;;;;;;;;0.00;0.00;;;;;18.80;69.53;99500.28;146622;592;46017;-72
2022/12/11 01:31:23;;;;;;;;;1.00;0.00;;;;;18.85;68.65;99515.16;146620;588;46020;-75
2022/12/11 01:34:18;;;;;;;;;0.33;0.33;;;;;18.91;68.20;99522.16;146617;578;46918;-74
2022/12/11 01:37:13;;;;;;;;;0.33;0.00;;;;;18.97;67.11;99523.88;146622;589;46021;-73
2022/12/11 01:40:08;;;;;;;;;0.00;0.00;;;;;18.98;66.89;99515.13;146621;584;46014;-75
2022/12/11 01:43:05;;;;;;;;;0.67;0.00;;;;;19.00;65.01;99535.25;146625;587;45020;-75
2022/12/11 01:46:11;;;;;;;;;;;;;;;;;;;;;
2022/12/11 01:49:30;;;;;;;;;0.00;0.00;;;;;16.75;64.74;99142.84;146622;609;46030;-74
2022/12/11 01:52:31;;;;;;;;;2.33;0.00;;;;;19.08;65.01;99537.88;146618;570;46918;-74
2022/12/11 01:55:30;;;;;;;;;0.00;0.00;;;;;19.08;66.95;99545.75;146623;593;46020;-73
2022/12/11 01:58:26;;;;;;;;;1.67;1.00;;;;;19.05;68.42;99554.50;146619;573;46013;-75
2022/12/11 02:01:35;;;;;;;;;0.00;0.00;;;;;18.96;68.37;99553.66;146614;610;46913;-73
2022/12/11 02:04:36;;;;;;;;;0.00;0.00;;;;;18.88;68.55;99546.69;146619;625;46012;-74
2022/12/11 02:07:33;;;;;;;;;0.67;0.00;;;;;18.82;70.41;99548.44;146619;592;46020;-74
2022/12/11 02:11:07;;;;;;;;;0.33;0.33;;;;;16.50;70.25;99190.72;146619;697;46016;-75
2022/12/11 02:14:27;;;;;;;;;3.00;1.00;;;;;18.63;70.55;99581.66;146624;624;46010;-76
2022/12/11 02:18:01;;;;;;;;;1.00;1.00;;;;;18.53;71.53;99578.12;146619;563;46014;-75
2022/12/11 02:21:21;;;;;;;;;2.67;1.33;;;;;18.46;72.59;99572.00;146625;564;46010;-76
2022/12/11 02:24:54;;;;;;;;;0.33;0.33;;;;;16.03;70.86;99147.84;146618;588;46016;-76
2022/12/11 02:28:08;;;;;;;;;2.00;1.00;;;;;18.32;70.60;99521.28;146625;581;46011;-75
2022/12/11 02:31:15;;;;;;;;;5.00;0.00;;;;;18.27;73.11;99504.66;146618;570;46014;-78
2022/12/11 02:34:26;;;;;;;;;2.00;0.67;;;;;18.16;71.29;99462.69;146623;599;46020;-76
2022/12/11 02:37:43;;;;;;;;;4.00;1.00;;;;;18.12;73.58;99434.66;146621;600;46016;-75
2022/12/11 02:40:40;;;;;;;;;2.67;2.33;;;;;18.03;73.20;99441.66;146619;613;46020;-75
2022/12/11 02:43:35;;;;;;;;;0.00;0.00;;;;;17.97;72.98;99442.53;146614;580;48918;-76
2022/12/11 02:46:31;;;;;;;;;1.33;1.00;;;;;17.95;71.79;99470.53;146619;656;46020;-75
2022/12/11 02:49:50;;;;;;;;;;;;;;;;;;;;;
2022/12/11 02:52:54;;;;;;;;;3.67;1.67;;;;;18.07;71.74;99477.50;146622;600;46010;-79
2022/12/11 02:55:56;;;;;;;;;1.67;1.33;;;;;18.09;72.11;99481.03;146618;623;46016;-80
2022/12/11 02:59:15;;;;;;;;;4.33;2.00;;;;;18.11;71.98;99472.28;146622;599;46021;-75
2022/12/11 03:02:08;;;;;;;;;5.33;1.00;;;;;18.12;72.05;99462.66;146618;573;46012;-75
2022/12/11 03:05:04;;;;;;;;;0.00;0.00;;;;;18.09;72.01;99465.28;146620;632;46021;-76
2022/12/11 03:08:07;;;;;;;;;2.00;0.00;;;;;18.06;72.14;99466.16;146618;563;46014;-81
2022/12/11 03:11:15;;;;;;;;;1.00;0.00;;;;;18.00;71.44;99472.25;146619;712;46011;-75
2022/12/11 03:14:11;;;;;;;;;0.00;0.00;;;;;18.02;71.79;99468.78;146618;577;46016;-76
2022/12/11 03:17:26;;;;;;;;;0.33;0.00;;;;;17.98;72.06;99470.53;146621;570;46020;-74
2022/12/11 03:21:05;;;;;;;;;0.00;0.00;;;;;17.96;72.83;99472.25;146617;598;46035;-74
2022/12/11 03:24:45;;;;;;;;;2.33;1.00;;;;;15.76;72.63;99105.91;146622;633;46010;-72
2022/12/11 03:28:10;;;;;;;;;6.00;2.33;;;;;17.94;74.63;99479.25;146618;566;46016;-76
2022/12/11 03:31:12;;;;;;;;;0.00;0.00;;;;;17.90;75.58;99469.63;146620;610;46020;-75
2022/12/11 03:34:40;;;;;;;;;2.67;0.33;;;;;15.49;74.57;99063.09;146620;593;46016;-75
2022/12/11 03:37:40;;;;;;;;;0.00;0.00;;;;;17.85;75.43;99476.59;146624;580;46010;-77
2022/12/11 03:40:41;;;;;;;;;0.00;0.00;;;;;17.84;74.36;99457.38;146620;599;46013;-76
2022/12/11 03:43:37;;;;;;;;;2.00;0.33;;;;;17.82;74.05;99442.50;146618;701;46020;-79
2022/12/11 03:46:39;;;;;;;;;1.00;0.00;;;;;17.81;73.28;99427.66;146615;578;47917;-75
2022/12/11 03:49:38;;;;;;;;;1.00;0.00;;;;;17.80;73.42;99436.41;146620;583;46012;-75
2022/12/11 03:52:39;;;;;;;;;0.67;0.00;;;;;17.80;73.13;99468.75;146619;565;46016;-75
2022/12/11 03:55:34;;;;;;;;;0.00;0.00;;;;;17.78;73.30;99463.47;146622;574;46020;-75
2022/12/11 03:58:26;;;;;;;;;0.33;0.33;;;;;17.77;72.22;99468.75;146621;581;46016;-77
2022/12/11 04:01:18;;;;;;;;;0.00;0.00;;;;;17.76;72.26;99464.34;146621;579;46012;-77
2022/12/11 04:04:10;;;;;;;;;0.00;0.00;;;;;17.72;72.43;99462.56;146618;615;46016;-76
2022/12/11 04:07:03;;;;;;;;;2.00;0.00;;;;;17.71;71.55;99468.69;146622;591;46020;-76
2022/12/11 04:10:00;;;;;;;;;1.00;0.00;;;;;17.69;72.25;99463.44;146618;588;46016;-76
2022/12/11 04:13:08;;;;;;;;;;;;;;;;;;;;;
2022/12/11 04:16:18;;;;;;;;;1.00;0.00;;;;;17.73;70.24;99456.47;146618;677;46012;-77
2022/12/11 04:25:51;;;;;;;;;1.00;0.00;;;;;17.70;68.81;99439.00;146623;574;46023;-78
2022/12/11 04:28:44;;;;;;;;;0.00;0.00;;;;;17.71;69.02;99437.22;146617;735;46016;-77
2022/12/11 04:31:39;;;;;;;;;0.00;0.00;;;;;17.70;68.34;99449.47;146624;569;46011;-78
2022/12/11 04:34:54;;;;;;;;;0.00;0.00;;;;;17.70;67.80;99469.56;146618;664;46016;-76
2022/12/11 04:38:04;;;;;;;;;1.33;0.00;;;;;17.67;67.68;99467.81;146621;596;46020;-75
2022/12/11 04:41:30;;;;;;;;;1.00;0.00;;;;;15.40;66.92;99089.16;146620;611;46016;-76
2022/12/11 04:44:31;;;;;;;;;0.00;0.00;;;;;17.70;66.93;99487.94;146615;579;46010;-75
2022/12/11 04:47:26;;;;;;;;;0.00;0.00;;;;;17.73;66.61;99477.44;146619;572;46017;-76
2022/12/11 04:50:35;;;;;;;;;0.00;0.00;;;;;17.73;66.32;99475.69;146621;577;46010;-77
2022/12/11 04:53:33;;;;;;;;;0.00;0.00;;;;;17.75;65.95;99473.94;146620;565;46013;-75
2022/12/11 04:56:31;;;;;;;;;0.33;0.00;;;;;17.77;66.30;99453.88;146615;586;46020;-74
2022/12/11 04:59:29;;;;;;;;;1.33;0.00;;;;;17.82;65.25;99453.00;146620;656;46012;-76
2022/12/11 05:02:29;;;;;;;;;0.00;0.00;;;;;17.84;65.84;99443.41;146623;593;46011;-74
2022/12/11 05:05:21;;;;;;;;;0.00;0.00;;;;;17.86;65.77;99439.91;146618;586;46016;-74
2022/12/11 05:08:17;;;;;;;;;0.00;0.00;;;;;17.84;66.62;99443.41;146627;567;46020;-75
2022/12/11 05:11:17;;;;;;;;;0.00;0.00;;;;;17.83;65.03;99447.78;146619;666;46012;-73
2022/12/11 05:14:11;;;;;;;;;0.00;0.00;;;;;17.84;66.12;99446.03;146618;591;46020;-74
2022/12/11 05:17:07;;;;;;;;;0.00;0.00;;;;;17.81;66.02;99427.66;146620;649;46017;-74
2022/12/11 05:20:11;;;;;;;;;0.00;0.00;;;;;17.77;66.04;99432.03;146621;595;46020;-80
2022/12/11 05:23:09;;;;;;;;;1.00;0.00;;;;;17.74;66.47;99445.97;146618;646;46017;-79
2022/12/11 05:26:41;;;;;;;;;0.00;0.00;;;;;15.45;65.76;99062.22;146619;566;46021;-79
2022/12/11 05:29:37;;;;;;;;;0.00;0.00;;;;;17.69;65.70;99457.31;146618;563;46016;-78
2022/12/11 05:32:38;;;;;;;;;0.00;0.00;;;;;17.67;65.69;99459.94;146622;646;46021;-77
2022/12/11 05:35:40;;;;;;;;;0.00;0.00;;;;;17.66;66.03;99452.06;146620;599;46012;-78
2022/12/11 05:38:36;;;;;;;;;0.00;0.00;;;;;17.64;65.45;99457.31;146620;630;46020;-78
2022/12/11 05:41:35;;;;;;;;;0.00;0.00;;;;;17.64;65.60;99467.81;146618;573;45021;-81
2022/12/11 05:44:35;;;;;;;;;0.00;0.00;;;;;17.66;66.22;99458.22;146619;587;46020;-80
2022/12/11 05:47:42;;;;;;;;;;;;;;;;;;;;;
2022/12/11 05:50:48;;;;;;;;;0.00;0.00;;;;;17.65;65.00;99437.22;146621;639;46022;-80
2022/12/11 05:53:50;;;;;;;;;0.00;0.00;;;;;17.61;66.03;99431.09;146616;713;47012;-74
2022/12/11 05:56:45;;;;;;;;;0.00;0.00;;;;;17.57;66.06;99438.94;146623;718;46020;-74
2022/12/11 06:00:01;;;;;;;;;;;;;;;;;;;;;
2022/12/11 06:02:58;;;;;;;;;1.00;0.00;;;;;17.45;66.71;99437.19;146624;577;46008;-74
2022/12/11 06:05:59;;;;;;;;;0.00;0.00;;;;;17.39;66.97;99434.53;146621;575;46016;-73
2022/12/11 06:09:27;;;;;;;;;0.00;0.00;;;;;15.13;66.85;99033.31;146621;677;46010;-74
2022/12/11 06:12:43;;;;;;;;;;;;;;;;;;;;;
2022/12/11 06:15:39;;;;;;;;;1.00;0.00;;;;;17.55;66.58;99382.16;146617;583;46011;-79
2022/12/11 06:18:36;;;;;;;;;0.00;0.00;;;;;17.62;66.86;99377.78;146624;581;45021;-79
2022/12/11 06:21:31;;;;;;;;;4.00;2.67;;;;;17.69;66.30;99407.50;146626;573;45020;-77
2022/12/11 06:24:34;;;;;;;;;1.33;0.00;;;;;17.73;64.88;99393.56;146621;617;45918;-77
2022/12/11 06:27:38;;;;;;;;;;;;;;;;;;;;;
2022/12/11 06:30:31;;;;;;;;;0.00;0.00;;;;;17.84;64.65;99393.59;146618;611;46017;-76
2022/12/11 06:33:26;;;;;;;;;0.00;0.00;;;;;17.89;64.64;99407.59;146622;606;46020;-77
2022/12/11 06:36:31;;;;;;;;;0.00;0.00;;;;;17.92;63.74;99424.19;146622;587;46017;-76
2022/12/11 06:39:48;;;;;;;;;0.00;0.00;;;;;17.97;64.44;99419.84;146620;673;46021;-78
2022/12/11 06:42:44;;;;;;;;;0.00;0.00;;;;;17.97;64.52;99417.22;146618;580;46919;-80
2022/12/11 06:45:39;;;;;;;;;0.00;0.00;;;;;17.96;64.41;99425.06;146613;564;46021;-80
2022/12/11 06:48:37;;;;;;;;;0.00;0.00;;;;;17.94;64.65;99425.06;146620;629;46014;-80
2022/12/11 06:51:51;;;;;;;;;0.00;0.00;;;;;17.94;64.83;99411.06;146620;576;46010;-79
2022/12/11 06:54:55;;;;;;;;;0.00;0.00;;;;;17.97;65.57;99419.84;146618;613;46016;-78
2022/12/11 06:57:53;;;;;;;;;5.33;2.67;;;;;18.01;64.48;99420.69;146623;577;46010;-78
2022/12/11 07:01:01;;;;;;;;;0.00;0.00;;;;;18.08;65.61;99405.84;146618;589;46012;-77
2022/12/11 07:04:09;;;;;;;;;1.33;0.00;;;;;18.12;65.30;99404.94;146620;573;46020;-80
2022/12/11 07:07:13;;;;;;;;;0.00;0.00;;;;;18.12;65.25;99394.44;146617;601;47012;-81
2022/12/11 07:10:09;;;;;;;;;1.67;0.00;;;;;18.09;65.30;99390.09;146620;563;46010;-79
2022/12/11 07:13:07;;;;;;;;;2.33;0.00;;;;;18.10;65.86;99396.19;146618;648;46916;-77
2022/12/11 07:16:03;;;;;;;;;1.00;1.00;;;;;18.13;66.39;99396.19;146621;613;46020;-76
2022/12/11 07:19:07;;;;;;;;;0.00;0.00;;;;;18.19;66.52;99397.09;146619;580;46014;-76
2022/12/11 07:22:11;;;;;;;;;1.00;1.00;;;;;18.25;65.56;99393.56;146623;571;46010;-76
2022/12/11 07:25:04;;;;;;;;;0.67;0.67;;;;;18.32;65.21;99390.06;146619;569;46016;-75
2022/12/11 07:28:09;;;;;;;;;7.00;2.67;;;;;18.52;66.61;99404.91;146621;570;46020;-76
2022/12/11 07:31:09;;;;;;;;;11.75;7.75;;;;;18.92;66.11;99396.06;146618;588;46016;-76
2022/12/11 07:34:35;;;;;;;;;10.33;9.00;;;;;18.90;65.96;99324.28;146621;563;46020;-80
2022/12/11 07:37:45;;;;;;;;;12.00;10.00;;;;;20.03;66.13;99393.69;146616;589;46013;-75
2022/12/11 07:40:45;;;;;;;;;19.75;17.00;;;;;20.73;63.28;99391.25;146621;578;46010;-76
2022/12/11 07:43:47;;;;;;;;;13.67;12.00;;;;;21.29;58.20;99380.91;146618;598;46042;-76
2022/12/11 07:46:47;;;;;;;;;12.33;11.00;;;;;21.50;56.58;99393.81;146620;585;46010;-76
2022/12/11 07:49:42;;;;;;;;;13.67;10.67;;;;;21.64;57.10;99404.16;146616;609;46016;-79
2022/12/11 07:52:46;;;;;;;;;16.75;13.00;;;;;21.82;58.50;99413.56;146620;569;46021;-77
2022/12/11 07:55:43;;;;;;;;;12.67;11.67;;;;;22.05;57.62;99416.69;146618;572;46016;-76
2022/12/11 07:58:48;;;;;;;;;4.33;2.33;;;;;22.24;55.19;99419.97;146619;589;46021;-81
2022/12/11 08:01:54;;;;;;;;;0.00;0.00;;;;;22.36;52.07;99416.22;146616;746;46025;-80
2022/12/11 08:05:00;;;;;;;;;0.00;0.00;;;;;22.47;50.39;99430.13;146619;649;46020;-77
2022/12/11 08:07:55;;;;;;;;;1.33;1.00;;;;;22.58;49.71;99430.78;146619;586;46012;-82
2022/12/11 08:10:59;;;;;;;;;0.00;0.00;;;;;22.65;49.01;99422.72;146621;598;46012;-81
2022/12/11 08:13:51;;;;;;;;;0.00;0.00;;;;;22.69;50.78;99422.66;146620;580;46016;-79
2022/12/11 08:16:56;;;;;;;;;;;;;;;;;;;;;
2022/12/11 08:20:12;;;;;;;;;0.00;0.00;;;;;22.80;49.57;99423.34;146621;574;46012;-80
2022/12/11 08:23:24;;;;;;;;;0.00;0.00;;;;;22.77;49.02;99426.03;146620;615;47012;-80
2022/12/11 08:26:31;;;;;;;;;0.67;0.67;;;;;22.67;50.07;99424.44;146619;648;46012;-82
2022/12/11 08:29:39;;;;;;;;;3.67;2.00;;;;;22.54;53.81;99437.03;146624;585;46010;-82
2022/12/11 08:32:53;;;;;;;;;;;;;;;;;;;;;
2022/12/11 08:35:47;;;;;;;;;3.00;0.00;;;;;22.53;49.90;99432.66;146619;702;48010;-81
2022/12/11 08:39:13;;;;;;;;;5.00;5.00;;;;;22.48;53.35;99447.69;146619;579;46016;-82
2022/12/11 08:42:18;;;;;;;;;5.67;3.00;;;;;22.49;53.58;99453.84;146623;648;46021;-80
2022/12/11 08:45:13;;;;;;;;;1.33;0.00;;;;;22.57;48.66;99447.53;146617;749;46016;-82
2022/12/11 08:48:12;;;;;;;;;0.00;0.00;;;;;22.62;49.55;99451.84;146619;604;46020;-80
2022/12/11 08:51:31;;;;;;;;;2.67;2.67;;;;;22.46;51.99;99460.06;146618;613;46916;-79
2022/12/11 08:54:26;;;;;;;;;1.67;1.67;;;;;22.05;53.37;99453.66;146622;614;46020;-76
2022/12/11 08:57:22;;;;;;;;;2.67;0.33;;;;;21.67;55.49;99460.37;146618;604;46012;-81
2022/12/11 09:00:20;;;;;;;;;0.33;0.00;;;;;21.09;56.06;99458.47;146624;573;46010;-80
2022/12/11 09:03:18;;;;;;;;;1.00;1.00;;;;;20.68;57.45;99466.81;146621;570;46016;-84
2022/12/11 09:06:25;;;;;;;;;2.33;1.00;;;;;20.37;58.62;99464.44;146622;630;46010;-80
2022/12/11 09:09:27;;;;;;;;;2.00;0.00;;;;;20.28;57.65;99444.34;146616;580;46016;-81
2022/12/11 09:12:22;;;;;;;;;0.00;0.00;;;;;20.34;57.57;99440.75;146622;566;46012;-80
2022/12/11 09:15:21;;;;;;;;;4.00;0.00;;;;;20.55;57.77;99441.50;146617;624;46016;-83
2022/12/11 09:18:16;;;;;;;;;0.33;0.00;;;;;20.82;56.32;99416.63;146619;578;46010;-80
2022/12/11 09:21:23;;;;;;;;;0.00;0.00;;;;;21.10;56.11;99411.91;146616;706;47017;-80
2022/12/11 09:24:39;;;;;;;;;;;;;;;;;;;;;
2022/12/11 09:27:46;;;;;;;;;1.67;0.00;;;;;21.57;52.71;99410.44;146620;696;46013;-82
2022/12/11 09:30:43;;;;;;;;;1.00;1.00;;;;;21.70;52.85;99416.38;146621;624;46010;-81
2022/12/11 09:33:55;;;;;;;;;3.00;2.00;;;;;19.68;55.36;99056.47;146617;584;46016;-80
2022/12/11 09:36:58;;;;;;;;;0.00;0.00;;;;;21.75;53.10;99420.72;146621;641;46020;-78
2022/12/11 09:39:59;;;;;;;;;1.00;1.00;;;;;21.68;53.50;99416.41;146616;694;46016;-78
2022/12/11 09:43:29;;;;;;;;;0.00;0.00;;;;;19.38;53.02;99033.13;146622;577;46021;-77
2022/12/11 09:46:24;;;;;;;;;2.00;2.00;;;;;21.42;51.46;99408.88;146619;659;46012;-77
2022/12/11 09:49:46;;;;;;;;;0.00;0.00;;;;;21.26;54.82;99412.59;146619;564;46021;-77
2022/12/11 09:53:08;;;;;;;;;0.00;0.00;;;;;21.14;56.19;99414.47;146619;586;46014;-79
2022/12/11 09:56:23;;;;;;;;;6.00;4.67;;;;;21.07;56.42;99420.72;146620;598;46021;-79
2022/12/11 10:00:03;;;;;;;;;0.00;0.00;;;;;18.80;54.75;99041.59;146620;601;46012;-76
2022/12/11 10:03:49;;;;;;;;;1.67;1.67;;;;;20.93;55.10;99418.25;146622;665;46029;-78
2022/12/11 10:07:29;;;;;;;;;0.00;0.00;;;;;18.89;56.53;99046.75;146622;579;46012;-81
2022/12/11 10:10:58;;;;;;;;;0.67;0.67;;;;;21.34;54.30;99410.69;146621;579;46020;-76
2022/12/11 10:15:00;;;;;;;;;1.00;0.33;;;;;19.00;53.96;98982.75;146621;572;46016;-79
2022/12/11 10:18:02;;;;;;;;;2.00;0.00;;;;;21.72;53.41;99417.25;146624;676;45021;-79
2022/12/11 10:21:05;;;;;;;;;2.00;1.00;;;;;21.79;53.02;99427.69;146620;587;46012;-80
2022/12/11 10:24:13;;;;;;;;;0.00;0.00;;;;;21.88;52.76;99424.03;146620;563;46020;-80
2022/12/11 10:27:27;;;;;;;;;2.00;0.00;;;;;22.01;53.89;99400.94;146620;577;46013;-79
2022/12/11 10:30:48;;;;;;;;;4.33;0.00;;;;;19.78;54.26;99024.78;146622;581;46010;-80
2022/12/11 10:34:22;;;;;;;;;2.33;1.67;;;;;19.64;53.21;99047.75;146619;663;46021;-80
2022/12/11 10:37:24;;;;;;;;;1.67;0.00;;;;;21.36;55.19;99399.28;146619;660;46020;-78
2022/12/11 10:40:25;;;;;;;;;0.00;0.00;;;;;21.06;55.34;99383.81;146619;588;46016;-74
2022/12/11 10:43:17;;;;;;;;;2.67;0.00;;;;;20.76;56.77;99394.72;146622;575;46012;-75
2022/12/11 10:46:39;;;;;;;;;0.00;0.00;;;;;20.54;57.78;99395.84;146620;569;46016;-76
2022/12/11 10:49:51;;;;;;;;;;;;;;;;;;;;;
2022/12/11 10:53:04;;;;;;;;;1.33;0.00;;;;;20.13;58.83;99401.50;146621;589;46012;-76
2022/12/11 10:56:00;;;;;;;;;1.00;0.33;;;;;20.04;58.74;99389.28;146621;647;46010;-79
2022/12/11 10:59:02;;;;;;;;;1.67;0.00;;;;;20.03;60.41;99391.03;146621;589;46016;-77
2022/12/11 11:02:10;;;;;;;;;;;;;;;;;;;;;
2022/12/11 11:05:15;;;;;;;;;18.50;13.00;;;;;20.04;60.73;99382.25;146619;677;46012;-75
2022/12/11 11:08:44;;;;;;;;;2.00;1.00;;;;;20.11;60.23;99369.91;146614;624;46010;-74
2022/12/11 11:11:42;;;;;;;;;1.00;1.00;;;;;20.12;59.45;99368.16;146619;655;46012;-77
2022/12/11 11:14:35;;;;;;;;;3.00;0.00;;;;;20.02;59.88;99372.62;146621;611;46010;-74
2022/12/11 11:17:50;;;;;;;;;0.00;0.00;;;;;19.84;62.79;99377.19;146620;570;46012;-77
2022/12/11 11:20:51;;;;;;;;;0.00;0.00;;;;;19.78;63.21;99361.44;146621;600;46020;-76
2022/12/11 11:23:43;;;;;;;;;0.00;0.00;;;;;19.78;62.11;99364.06;146617;600;46016;-73
2022/12/11 11:26:37;;;;;;;;;0.00;0.00;;;;;19.77;62.98;99356.19;146618;583;46011;-76
2022/12/11 11:29:40;;;;;;;;;0.00;0.00;;;;;19.69;64.75;99372.03;146617;582;46016;-75
2022/12/11 11:32:44;;;;;;;;;0.67;0.00;;;;;19.60;65.12;99372.06;146620;596;46020;-73
2022/12/11 11:35:38;;;;;;;;;0.67;0.00;;;;;19.50;65.43;99355.47;146616;630;47016;-77
2022/12/11 11:39:16;;;;;;;;;0.00;0.00;;;;;17.14;63.35;98978.75;146619;565;46020;-75
2022/12/11 11:43:04;;;;;;;;;0.00;0.00;;;;;19.38;61.78;99366.94;146619;638;46017;-76
2022/12/11 11:46:10;;;;;;;;;1.00;0.00;;;;;19.31;61.46;99374.84;146622;662;46010;-78
2022/12/11 11:49:35;;;;;;;;;0.00;0.00;;;;;16.91;61.04;98999.72;146616;599;46017;-75
2022/12/11 11:53:02;;;;;;;;;0.00;0.00;;;;;19.22;61.89;99422.19;146623;580;46010;-77
2022/12/11 11:56:41;;;;;;;;;4.00;3.00;;;;;19.16;63.18;99441.53;146619;573;46013;-75
2022/12/11 11:59:53;;;;;;;;;1.00;0.00;;;;;19.01;64.90;99470.47;146619;645;46012;-77
2022/12/11 12:03:05;;;;;;;;;4.33;3.33;;;;;18.78;65.90;99481.88;146618;625;46017;-77
2022/12/11 12:06:48;;;;;;;;;1.33;1.33;;;;;18.57;64.73;99476.66;146623;564;46020;-76
2022/12/11 12:10:26;;;;;;;;;2.67;2.00;;;;;18.44;66.02;99467.91;146619;628;46015;-77
2022/12/11 12:13:58;;;;;;;;;4.33;3.00;;;;;18.43;65.77;99456.53;146624;569;45022;-76
2022/12/11 12:17:24;;;;;;;;;10.25;9.00;;;;;18.51;65.89;99453.03;146617;593;46914;-76
2022/12/11 12:20:52;;;;;;;;;11.25;11.25;;;;;18.56;65.21;99446.00;146622;676;46020;-76
2022/12/11 12:24:20;;;;;;;;;25.50;20.50;;;;;18.59;65.31;99430.25;146613;593;47916;-76
2022/12/11 12:27:31;;;;;;;;;6.33;4.67;;;;;18.59;65.15;99425.88;146622;594;46010;-76
2022/12/11 12:30:30;;;;;;;;;14.00;10.67;;;;;18.58;65.20;99415.41;146617;701;46016;-76
2022/12/11 12:33:54;;;;;;;;;11.25;10.50;;;;;18.55;64.64;99403.16;146617;721;46010;-77
2022/12/11 12:37:28;;;;;;;;;13.75;11.25;;;;;16.16;63.72;98992.75;146612;582;47916;-78
2022/12/11 12:41:13;;;;;;;;;9.00;8.50;;;;;18.49;63.29;99386.53;146622;570;46020;-77
2022/12/11 12:44:40;;;;;;;;;8.67;8.33;;;;;16.15;62.63;98990.16;146621;593;46014;-78
2022/12/11 12:47:40;;;;;;;;;3.00;3.00;;;;;18.49;63.00;99368.16;146623;609;46022;-78
2022/12/11 12:50:49;;;;;;;;;10.25;8.50;;;;;18.51;61.49;99345.41;146620;729;46016;-77
2022/12/11 12:54:25;;;;;;;;;0.00;0.00;;;;;16.25;60.09;98949.19;146623;627;46020;-77
2022/12/11 12:57:17;;;;;;;;;0.00;0.00;;;;;18.56;60.68;99336.63;146621;576;46034;-78
2022/12/11 13:00:20;;;;;;;;;3.33;2.00;;;;;18.98;60.24;99328.63;146619;564;46020;-78
2022/12/11 13:03:32;;;;;;;;;0.00;0.00;;;;;19.50;59.25;99329.19;146620;651;46013;-78
2022/12/11 13:06:55;;;;;;;;;2.33;2.33;;;;;18.64;60.00;99135.34;146614;694;47010;-77
2022/12/11 13:10:34;;;;;;;;;4.67;2.67;;;;;20.01;58.62;99345.44;146617;571;46016;-78
2022/12/11 13:13:45;;;;;;;;;9.00;9.00;;;;;20.06;59.35;99346.28;146625;671;46020;-78
2022/12/11 13:16:48;;;;;;;;;20.00;18.50;;;;;20.11;58.95;99353.25;146616;597;46016;-78
2022/12/11 13:19:47;;;;;;;;;19.75;16.50;;;;;20.10;57.81;99354.16;146622;778;45020;-79
2022/12/11 13:23:13;;;;;;;;;9.67;8.67;;;;;20.06;58.58;99372.59;146620;626;46016;-78
2022/12/11 13:26:16;;;;;;;;;8.00;6.00;;;;;20.00;59.06;99384.91;146622;584;47010;-78
2022/12/11 13:29:42;;;;;;;;;7.67;6.00;;;;;17.71;60.14;99026.53;146619;587;46016;-78
2022/12/11 13:33:04;;;;;;;;;15.50;13.50;;;;;19.70;59.60;99413.22;146620;574;46031;-78
2022/12/11 13:36:36;;;;;;;;;15.25;11.00;;;;;17.16;60.66;99037.19;146614;715;46014;-78
2022/12/11 13:39:50;;;;;;;;;;;;;;;;;;;;;
2022/12/11 13:43:03;;;;;;;;;18.75;15.75;;;;;19.13;61.51;99460.78;146618;560;46016;-78
2022/12/11 13:46:09;;;;;;;;;20.75;20.75;;;;;19.03;64.25;99480.06;146619;581;47011;-78
2022/12/11 13:49:07;;;;;;;;;11.00;10.25;;;;;18.88;65.26;99474.87;146618;642;46016;-78
2022/12/11 13:52:15;;;;;;;;;13.33;12.67;;;;;18.72;65.88;99487.12;146621;663;46020;-77
2022/12/11 13:55:24;;;;;;;;;25.50;23.75;;;;;18.54;64.93;99474.03;146617;730;46012;-77
2022/12/11 13:58:37;;;;;;;;;4.00;4.00;;;;;16.12;64.13;99097.34;146622;599;46020;-78
2022/12/11 14:01:35;;;;;;;;;10.75;8.75;;;;;18.33;65.50;99501.16;146633;635;45013;-78
2022/12/11 14:04:34;;;;;;;;;5.33;5.00;;;;;18.28;65.82;99508.13;146637;649;45020;-79
2022/12/11 14:07:33;;;;;;;;;4.00;4.00;;;;;18.22;65.54;99509.00;146634;575;45916;-79
2022/12/11 14:10:33;;;;;;;;;6.00;4.00;;;;;18.18;65.28;99517.75;146630;569;46012;-79
2022/12/11 14:13:37;;;;;;;;;12.67;9.67;;;;;18.14;65.76;99523.88;146636;609;45016;-78
2022/12/11 14:16:38;;;;;;;;;75.25;58.00;;;;;18.07;66.19;99514.22;146636;603;45021;-77
2022/12/11 14:19:36;;;;;;;;;25.50;21.25;;;;;18.05;66.92;99511.63;146634;588;45016;-78
2022/12/11 14:22:42;;;;;;;;;0.67;0.00;;;;;18.01;67.34;99504.63;146637;581;45020;-78
2022/12/11 14:25:46;;;;;;;;;6.33;4.67;;;;;17.91;69.81;99485.38;146632;585;45016;-79
2022/12/11 14:28:47;;;;;;;;;2.00;1.00;;;;;17.67;71.23;99456.47;146636;602;45020;-78
2022/12/11 14:32:09;;;;;;;;;4.67;4.00;;;;;15.41;70.23;99133.56;146637;602;45017;-77
2022/12/11 14:35:10;;;;;;;;;15.25;14.25;;;;;17.33;72.35;99500.91;146628;674;46022;-78
2022/12/11 14:38:31;;;;;;;;;37.00;32.00;;;;;17.37;71.88;99492.16;146635;577;45016;-78
2022/12/11 14:41:52;;;;;;;;;30.25;26.00;;;;;17.38;71.47;99483.44;146633;609;46012;-77
2022/12/11 14:45:23;;;;;;;;;34.75;29.00;;;;;17.36;71.64;99479.06;146635;580;45016;-78
2022/12/11 14:48:47;;;;;;;;;8.33;5.00;;;;;17.29;71.23;99467.69;146638;580;45020;-79
2022/12/11 14:52:01;;;;;;;;;9.25;8.75;;;;;14.89;70.71;99052.31;146634;598;45914;-79
2022/12/11 14:55:03;;;;;;;;;26.00;25.50;;;;;17.28;73.18;99458.94;146634;622;45021;-78
2022/12/11 14:58:18;;;;;;;;;22.25;22.25;;;;;14.85;73.04;99055.75;146632;716;45016;-78
2022/12/11 15:01:37;;;;;;;;;0.00;0.00;;;;;17.14;72.54;99472.88;146615;604;46010;-79
2022/12/11 15:04:37;;;;;;;;;1.00;1.00;;;;;16.99;73.37;99466.69;146616;579;46016;-78
2022/12/11 15:07:35;;;;;;;;;4.33;4.33;;;;;16.85;73.41;99465.72;146619;564;46020;-78